createdAt,value
2022-12-27T05:00:34.836Z,1015.29
2022-12-27T05:01:34.841Z,1015.27
2022-12-27T05:02:34.948Z,1015.18
2022-12-27T05:03:34.763Z,1015.16
2022-12-27T05:04:34.745Z,1015.16
2022-12-27T05:05:34.706Z,1015.19
2022-12-27T05:06:34.691Z,1015.23
2022-12-27T05:07:34.721Z,1015.24
2022-12-27T05:08:34.669Z,1015.25
2022-12-27T05:09:34.684Z,1015.27
2022-12-27T05:10:34.669Z,1015.25
2022-12-27T05:11:39.694Z,1015.24
2022-12-27T05:12:34.634Z,1015.36
2022-12-27T05:13:34.615Z,1015.33
2022-12-27T05:14:34.603Z,1015.33
2022-12-27T05:15:34.599Z,1015.35
2022-12-27T05:16:34.681Z,1015.33
2022-12-27T05:17:34.566Z,1015.39
2022-12-27T05:18:34.564Z,1015.44
2022-12-27T05:19:34.543Z,1015.36
2022-12-27T05:20:34.531Z,1015.49
2022-12-27T05:21:34.551Z,1015.48
2022-12-27T05:22:40.528Z,1015.44
2022-12-27T05:23:34.530Z,1015.45
2022-12-27T05:24:34.493Z,1015.45
2022-12-27T05:25:34.483Z,1015.45
2022-12-27T05:26:34.464Z,1015.49
2022-12-27T05:27:34.470Z,1015.53
2022-12-27T05:28:34.471Z,1015.54
2022-12-27T05:29:34.430Z,1015.56
2022-12-27T05:30:34.431Z,1015.60
2022-12-27T05:31:34.553Z,1015.59
2022-12-27T05:32:34.426Z,1015.61
2022-12-27T05:33:39.420Z,1015.61
2022-12-27T05:34:34.380Z,1015.64
2022-12-27T05:35:34.408Z,1015.69
2022-12-27T05:36:34.356Z,1015.68
2022-12-27T05:37:34.346Z,1015.65
2022-12-27T05:38:34.343Z,1015.73
2022-12-27T05:39:34.337Z,1015.71
2022-12-27T05:40:34.315Z,1015.75
2022-12-27T05:41:34.302Z,1015.82
2022-12-27T05:42:34.295Z,1015.68
2022-12-27T05:43:34.294Z,1015.62
2022-12-27T05:44:39.288Z,1015.72
2022-12-27T05:45:34.252Z,1015.76
2022-12-27T05:46:34.308Z,1015.63
2022-12-27T05:47:34.233Z,1015.71
2022-12-27T05:48:34.254Z,1015.73
2022-12-27T05:49:34.228Z,1015.65
2022-12-27T05:50:34.225Z,1015.67
2022-12-27T05:51:34.187Z,1015.65
2022-12-27T05:52:40.609Z,1015.70
2022-12-27T05:53:35.164Z,1015.64
2022-12-27T05:54:34.170Z,1015.69
2022-12-27T05:55:39.169Z,1015.71
2022-12-27T05:56:34.133Z,1015.75
2022-12-27T05:57:34.163Z,1015.65
2022-12-27T05:58:34.115Z,1015.65
2022-12-27T05:59:34.115Z,1015.65
2022-12-27T06:00:34.091Z,1015.60
2022-12-27T06:01:34.219Z,1015.65
2022-12-27T06:02:34.298Z,1015.58
2022-12-27T06:03:34.131Z,1015.58
2022-12-27T06:04:34.136Z,1015.61
2022-12-27T06:05:34.036Z,1015.62
2022-12-27T06:06:39.046Z,1015.68
2022-12-27T06:07:34.017Z,1015.67
2022-12-27T06:08:34.003Z,1015.64
2022-12-27T06:09:33.999Z,1015.65
2022-12-27T06:10:33.987Z,1015.64
2022-12-27T06:11:33.968Z,1015.73
2022-12-27T06:12:33.967Z,1015.78
2022-12-27T06:13:33.971Z,1015.77
2022-12-27T06:14:33.947Z,1015.70
2022-12-27T06:15:33.921Z,1015.77
2022-12-27T06:16:33.941Z,1015.83
2022-12-27T06:17:38.923Z,1015.83
2022-12-27T06:18:33.913Z,1015.79
2022-12-27T06:19:33.896Z,1015.80
2022-12-27T06:20:33.961Z,1015.80
2022-12-27T06:21:33.854Z,1015.82
2022-12-27T06:22:33.845Z,1015.84
2022-12-27T06:23:33.832Z,1015.87
2022-12-27T06:24:33.839Z,1015.94
2022-12-27T06:25:33.812Z,1015.91
2022-12-27T06:26:33.800Z,1015.90
2022-12-27T06:27:33.791Z,1015.84
2022-12-27T06:28:39.798Z,1015.76
2022-12-27T06:29:33.766Z,1015.80
2022-12-27T06:30:36.298Z,1015.89
2022-12-27T06:31:33.824Z,1015.82
2022-12-27T06:32:33.735Z,1015.90
2022-12-27T06:33:33.738Z,1015.86
2022-12-27T06:34:33.714Z,1015.97
2022-12-27T06:35:33.718Z,1015.98
2022-12-27T06:36:33.729Z,1016.01
2022-12-27T06:37:33.678Z,1016.02
2022-12-27T06:38:33.673Z,1016.01
2022-12-27T06:39:38.678Z,1016.01
2022-12-27T06:40:33.653Z,1016.07
2022-12-27T06:41:33.637Z,1016.04
2022-12-27T06:42:33.636Z,1016.12
2022-12-27T06:43:33.624Z,1016.07
2022-12-27T06:44:33.601Z,1016.12
2022-12-27T06:45:34.640Z,1016.05
2022-12-27T06:46:33.579Z,1016.07
2022-12-27T06:47:33.572Z,1016.13
2022-12-27T06:48:33.555Z,1016.11
2022-12-27T06:49:33.545Z,1016.09
2022-12-27T06:50:38.577Z,1016.13
2022-12-27T06:51:33.522Z,1016.08
2022-12-27T06:52:33.537Z,1016.07
2022-12-27T06:53:33.506Z,1016.06
2022-12-27T06:54:33.492Z,1016.05
2022-12-27T06:55:33.488Z,1016.07
2022-12-27T06:56:33.478Z,1016.01
2022-12-27T06:57:33.457Z,1016.06
2022-12-27T06:58:33.447Z,1016.13
2022-12-27T06:59:33.443Z,1016.04
2022-12-27T07:00:33.428Z,1016.08
2022-12-27T07:01:38.523Z,1016.06
2022-12-27T07:02:33.654Z,1016.15
2022-12-27T07:03:33.389Z,1016.17
2022-12-27T07:04:33.384Z,1016.11
2022-12-27T07:05:33.380Z,1016.10
2022-12-27T07:06:33.373Z,1016.16
2022-12-27T07:07:33.350Z,1016.17
2022-12-27T07:08:33.358Z,1016.19
2022-12-27T07:09:33.330Z,1016.24
2022-12-27T07:10:33.317Z,1016.22
2022-12-27T07:11:33.321Z,1016.22
2022-12-27T07:12:38.316Z,1016.22
2022-12-27T07:13:33.279Z,1016.22
2022-12-27T07:14:33.272Z,1016.22
2022-12-27T07:15:33.257Z,1016.16
2022-12-27T07:16:33.284Z,1016.22
2022-12-27T07:17:33.237Z,1016.25
2022-12-27T07:18:34.228Z,1016.23
2022-12-27T07:19:33.235Z,1016.24
2022-12-27T07:20:33.206Z,1016.25
2022-12-27T07:21:33.203Z,1016.30
2022-12-27T07:22:33.192Z,1016.35
2022-12-27T07:23:38.210Z,1016.33
2022-12-27T07:24:33.215Z,1016.33
2022-12-27T07:25:33.145Z,1016.38
2022-12-27T07:26:33.154Z,1016.38
2022-12-27T07:27:34.124Z,1016.35
2022-12-27T07:28:33.284Z,1016.33
2022-12-27T07:29:33.104Z,1016.30
2022-12-27T07:30:33.117Z,1016.29
2022-12-27T07:31:33.205Z,1016.32
2022-12-27T07:32:33.074Z,1016.29
2022-12-27T07:33:33.056Z,1016.29
2022-12-27T07:34:38.072Z,1016.31
2022-12-27T07:35:33.043Z,1016.31
2022-12-27T07:36:33.079Z,1016.37
2022-12-27T07:37:33.014Z,1016.36
2022-12-27T07:38:33.004Z,1016.30
2022-12-27T07:39:33.010Z,1016.28
2022-12-27T07:40:33.091Z,1016.35
2022-12-27T07:41:32.967Z,1016.39
2022-12-27T07:42:32.969Z,1016.33
2022-12-27T07:43:32.952Z,1016.39
2022-12-27T07:44:32.941Z,1016.42
2022-12-27T07:45:38.025Z,1016.47
2022-12-27T07:46:32.912Z,1016.52
2022-12-27T07:47:33.070Z,1016.47
2022-12-27T07:48:32.907Z,1016.45
2022-12-27T07:49:32.891Z,1016.52
2022-12-27T07:50:32.869Z,1016.51
2022-12-27T07:51:32.903Z,1016.47
2022-12-27T07:52:32.866Z,1016.55
2022-12-27T07:53:32.843Z,1016.52
2022-12-27T07:54:32.826Z,1016.53
2022-12-27T07:55:32.832Z,1016.54
2022-12-27T07:56:37.842Z,1016.46
2022-12-27T07:57:32.806Z,1016.48
2022-12-27T07:58:32.783Z,1016.53
2022-12-27T07:59:32.783Z,1016.45
2022-12-27T08:00:32.811Z,1016.52
2022-12-27T08:01:32.858Z,1016.53
2022-12-27T08:02:32.880Z,1016.52
2022-12-27T08:03:32.745Z,1016.56
2022-12-27T08:04:32.739Z,1016.55
2022-12-27T08:05:32.713Z,1016.66
2022-12-27T08:06:32.741Z,1016.62
2022-12-27T08:07:38.714Z,1016.61
2022-12-27T08:08:32.707Z,1016.62
2022-12-27T08:09:32.767Z,1016.62
2022-12-27T08:10:32.649Z,1016.62
2022-12-27T08:11:32.689Z,1016.69
2022-12-27T08:12:32.651Z,1016.68
2022-12-27T08:13:32.619Z,1016.74
2022-12-27T08:14:32.602Z,1016.71
2022-12-27T08:15:32.591Z,1016.77
2022-12-27T08:16:32.629Z,1016.73
2022-12-27T08:17:32.576Z,1016.70
2022-12-27T08:18:37.593Z,1016.72
2022-12-27T08:19:32.552Z,1016.73
2022-12-27T08:20:32.534Z,1016.78
2022-12-27T08:21:32.521Z,1016.73
2022-12-27T08:22:32.516Z,1016.74
2022-12-27T08:23:32.527Z,1016.72
2022-12-27T08:24:32.513Z,1016.77
2022-12-27T08:25:32.479Z,1016.77
2022-12-27T08:26:32.496Z,1016.76
2022-12-27T08:27:32.483Z,1016.80
2022-12-27T08:28:32.460Z,1016.78
2022-12-27T08:29:37.554Z,1016.82
2022-12-27T08:30:32.498Z,1016.79
2022-12-27T08:31:32.419Z,1016.90
2022-12-27T08:32:32.410Z,1016.90
2022-12-27T08:33:32.408Z,1016.79
2022-12-27T08:34:32.382Z,1016.85
2022-12-27T08:35:52.164Z,1016.84
2022-12-27T08:37:33.361Z,1016.82
2022-12-27T08:38:33.346Z,1016.78
2022-12-27T08:39:32.335Z,1016.84
2022-12-27T08:40:37.342Z,1016.91
2022-12-27T08:41:32.299Z,1016.93
2022-12-27T08:42:32.290Z,1016.96
2022-12-27T08:43:32.316Z,1016.91
2022-12-27T08:44:32.288Z,1016.92
2022-12-27T08:45:32.261Z,1016.95
2022-12-27T08:46:32.324Z,1016.93
2022-12-27T08:47:32.250Z,1016.96
2022-12-27T08:48:32.321Z,1016.91
2022-12-27T08:49:32.216Z,1016.91
2022-12-27T08:50:32.211Z,1016.91
2022-12-27T08:51:41.052Z,1016.89
2022-12-27T08:52:32.188Z,1016.91
2022-12-27T08:53:32.179Z,1016.89
2022-12-27T08:54:32.162Z,1016.78
2022-12-27T08:55:32.166Z,1016.90
2022-12-27T08:56:32.152Z,1016.90
2022-12-27T08:57:32.122Z,1016.90
2022-12-27T08:58:32.148Z,1016.88
2022-12-27T08:59:32.140Z,1016.91
2022-12-27T09:00:32.116Z,1016.89
2022-12-27T09:01:32.178Z,1016.88
2022-12-27T09:02:37.338Z,1016.91
2022-12-27T09:03:33.178Z,1016.98
2022-12-27T09:04:32.071Z,1017.02
2022-12-27T09:05:36.617Z,1017.00
2022-12-27T09:06:33.033Z,1017.01
2022-12-27T09:07:32.057Z,1017.05
2022-12-27T09:08:32.027Z,1017.03
2022-12-27T09:09:32.004Z,1017.08
2022-12-27T09:10:32.005Z,1017.05
2022-12-27T09:11:31.970Z,1016.97
2022-12-27T09:12:32.020Z,1017.03
2022-12-27T09:13:37.009Z,1016.99
2022-12-27T09:14:31.939Z,1017.05
2022-12-27T09:15:32.025Z,1016.98
2022-12-27T09:16:31.967Z,1017.12
2022-12-27T09:17:31.907Z,1017.10
2022-12-27T09:18:31.900Z,1017.08
2022-12-27T09:19:31.895Z,1017.09
2022-12-27T09:20:31.880Z,1017.06
2022-12-27T09:21:31.957Z,1017.02
2022-12-27T09:22:32.925Z,1017.05
2022-12-27T09:23:31.853Z,1017.08
2022-12-27T09:24:36.868Z,1017.07
2022-12-27T09:25:31.893Z,1017.04
2022-12-27T09:26:31.810Z,1017.04
2022-12-27T09:27:31.819Z,1017.06
2022-12-27T09:28:31.782Z,1017.08
2022-12-27T09:29:31.779Z,1017.11
2022-12-27T09:30:31.769Z,1017.12
2022-12-27T09:31:31.830Z,1017.06
2022-12-27T09:32:31.743Z,1017.14
2022-12-27T09:33:31.763Z,1017.18
2022-12-27T09:34:31.810Z,1017.22
2022-12-27T09:35:38.655Z,1017.15
2022-12-27T09:36:31.702Z,1017.22
2022-12-27T09:37:31.688Z,1017.21
2022-12-27T09:38:31.699Z,1017.23
2022-12-27T09:39:31.672Z,1017.21
2022-12-27T09:40:31.650Z,1017.22
2022-12-27T09:42:26.050Z,1017.19
2022-12-27T09:43:01.918Z,1017.14
2022-12-27T09:43:32.619Z,1017.19
2022-12-27T09:44:31.618Z,1017.15
2022-12-27T09:45:31.597Z,1017.19
2022-12-27T09:46:36.675Z,1017.23
2022-12-27T09:47:31.572Z,1017.13
2022-12-27T09:48:33.401Z,1017.15
2022-12-27T09:49:32.554Z,1017.15
2022-12-27T09:50:31.566Z,1017.10
2022-12-27T09:51:31.532Z,1017.15
2022-12-27T09:52:31.511Z,1017.26
2022-12-27T09:53:31.504Z,1017.29
2022-12-27T09:54:31.507Z,1017.25
2022-12-27T09:55:31.499Z,1017.30
2022-12-27T09:56:47.263Z,1017.25
2022-12-27T09:57:37.512Z,1017.26
2022-12-27T09:58:31.444Z,1017.24
2022-12-27T09:59:31.450Z,1017.22
2022-12-27T10:00:35.028Z,1017.18
2022-12-27T10:01:31.599Z,1017.21
2022-12-27T10:02:31.678Z,1017.22
2022-12-27T10:03:31.395Z,1017.17
2022-12-27T10:05:00.823Z,1017.14
2022-12-27T10:05:32.497Z,1017.06
2022-12-27T10:06:31.366Z,1017.02
2022-12-27T10:07:31.375Z,1017.02
2022-12-27T10:08:36.370Z,1017.10
2022-12-27T10:09:31.353Z,1017.09
2022-12-27T10:10:31.325Z,1017.02
2022-12-27T10:11:31.317Z,1017.07
2022-12-27T10:12:32.104Z,1017.07
2022-12-27T10:13:31.321Z,1017.06
2022-12-27T10:14:31.292Z,1017.04
2022-12-27T10:15:31.268Z,1017.07
2022-12-27T10:16:31.341Z,1017.08
2022-12-27T10:17:31.241Z,1017.07
2022-12-27T10:18:31.250Z,1017.01
2022-12-27T10:19:36.266Z,1017.09
2022-12-27T10:20:31.209Z,1017.09
2022-12-27T10:21:31.206Z,1017.10
2022-12-27T10:22:31.187Z,1017.13
2022-12-27T10:23:31.171Z,1017.15
2022-12-27T10:24:31.160Z,1017.20
2022-12-27T10:25:31.194Z,1017.22
2022-12-27T10:26:31.145Z,1017.15
2022-12-27T10:27:31.150Z,1017.14
2022-12-27T10:28:31.117Z,1017.13
2022-12-27T10:29:31.111Z,1017.11
2022-12-27T10:30:36.140Z,1017.08
2022-12-27T10:31:31.136Z,1017.07
2022-12-27T10:32:31.130Z,1017.06
2022-12-27T10:33:31.065Z,1017.09
2022-12-27T10:34:31.110Z,1017.08
2022-12-27T10:35:31.056Z,1017.15
2022-12-27T10:36:31.040Z,1017.10
2022-12-27T10:37:31.042Z,1017.10
2022-12-27T10:38:31.005Z,1017.11
2022-12-27T10:39:31.016Z,1017.12
2022-12-27T10:40:34.305Z,1017.04
2022-12-27T10:41:35.993Z,1017.05
2022-12-27T10:42:30.960Z,1017.01
2022-12-27T10:43:30.978Z,1017.01
2022-12-27T10:44:30.945Z,1017.04
2022-12-27T10:45:30.933Z,1017.02
2022-12-27T10:46:33.501Z,1016.96
2022-12-27T10:47:30.905Z,1016.93
2022-12-27T10:48:47.441Z,1017.00
2022-12-27T10:49:31.888Z,1016.97
2022-12-27T10:50:30.899Z,1017.01
2022-12-27T10:51:30.857Z,1017.01
2022-12-27T10:52:35.872Z,1017.06
2022-12-27T10:53:30.834Z,1017.05
2022-12-27T10:54:30.841Z,1017.16
2022-12-27T10:55:30.835Z,1017.10
2022-12-27T10:56:30.803Z,1017.10
2022-12-27T10:57:30.800Z,1017.13
2022-12-27T10:58:30.781Z,1017.07
2022-12-27T10:59:30.766Z,1017.06
2022-12-27T11:00:30.816Z,1017.06
2022-12-27T11:01:31.036Z,1017.04
2022-12-27T11:02:30.878Z,1017.04
2022-12-27T11:03:35.751Z,1017.08
2022-12-27T11:04:30.757Z,1017.02
2022-12-27T11:05:30.714Z,1017.07
2022-12-27T11:06:30.719Z,1017.05
2022-12-27T11:07:30.685Z,1017.07
2022-12-27T11:08:30.668Z,1017.02
2022-12-27T11:09:30.664Z,1017.07
2022-12-27T11:10:30.654Z,1017.05
2022-12-27T11:11:30.639Z,1017.02
2022-12-27T11:12:30.636Z,1017.03
2022-12-27T11:13:30.620Z,1017.06
2022-12-27T11:14:35.674Z,1016.97
2022-12-27T11:15:30.609Z,1016.98
2022-12-27T11:16:30.624Z,1017.02
2022-12-27T11:17:30.565Z,1016.93
2022-12-27T11:18:30.554Z,1016.94
2022-12-27T11:19:30.548Z,1016.98
2022-12-27T11:20:30.535Z,1016.98
2022-12-27T11:21:30.533Z,1017.01
2022-12-27T11:22:30.527Z,1017.02
2022-12-27T11:23:30.497Z,1016.97
2022-12-27T11:24:30.491Z,1017.02
2022-12-27T11:25:35.532Z,1016.98
2022-12-27T11:26:30.462Z,1017.06
2022-12-27T11:27:30.456Z,1016.92
2022-12-27T11:28:30.441Z,1016.96
2022-12-27T11:29:30.434Z,1016.92
2022-12-27T11:30:30.417Z,1016.93
2022-12-27T11:31:30.496Z,1016.88
2022-12-27T11:32:30.411Z,1016.94
2022-12-27T11:33:30.387Z,1016.94
2022-12-27T11:34:30.377Z,1016.92
2022-12-27T11:35:30.364Z,1017.04
2022-12-27T11:36:35.402Z,1016.96
2022-12-27T11:37:31.350Z,1017.02
2022-12-27T11:38:30.372Z,1017.03
2022-12-27T11:39:30.320Z,1017.04
2022-12-27T11:40:30.315Z,1017.03
2022-12-27T11:41:30.307Z,1017.09
2022-12-27T11:42:30.314Z,1017.00
2022-12-27T11:43:30.283Z,1016.94
2022-12-27T11:44:30.280Z,1017.01
2022-12-27T11:45:30.262Z,1017.02
2022-12-27T11:46:30.286Z,1017.00
2022-12-27T11:47:35.258Z,1016.95
2022-12-27T11:48:30.218Z,1017.08
2022-12-27T11:49:30.211Z,1017.07
2022-12-27T11:50:30.193Z,1017.03
2022-12-27T11:51:30.201Z,1017.03
2022-12-27T11:52:30.170Z,1017.01
2022-12-27T11:53:30.157Z,1016.99
2022-12-27T11:54:30.164Z,1016.97
2022-12-27T11:55:30.143Z,1016.95
2022-12-27T11:56:30.136Z,1016.92
2022-12-27T11:57:30.118Z,1016.91
2022-12-27T11:58:35.127Z,1016.91
2022-12-27T11:59:30.101Z,1016.87
2022-12-27T12:00:30.081Z,1016.88
2022-12-27T12:01:30.118Z,1016.85
2022-12-27T12:02:30.127Z,1016.86
2022-12-27T12:03:30.098Z,1016.84
2022-12-27T12:04:30.044Z,1016.88
2022-12-27T12:05:30.038Z,1016.84
2022-12-27T12:06:34.465Z,1016.78
2022-12-27T12:07:30.013Z,1016.82
2022-12-27T12:08:29.996Z,1016.87
2022-12-27T12:09:35.024Z,1016.88
2022-12-27T12:10:29.975Z,1016.89
2022-12-27T12:11:30.953Z,1016.87
2022-12-27T12:12:29.995Z,1016.85
2022-12-27T12:13:29.990Z,1016.87
2022-12-27T12:14:29.929Z,1016.92
2022-12-27T12:15:29.910Z,1016.89
2022-12-27T12:16:29.981Z,1016.86
2022-12-27T12:17:35.720Z,1016.80
2022-12-27T12:18:30.875Z,1016.78
2022-12-27T12:19:29.870Z,1016.92
2022-12-27T12:20:34.932Z,1016.86
2022-12-27T12:21:29.852Z,1016.87
2022-12-27T12:22:29.842Z,1016.81
2022-12-27T12:23:29.823Z,1016.80
2022-12-27T12:24:29.827Z,1016.82
2022-12-27T12:25:29.827Z,1016.76
2022-12-27T12:26:29.790Z,1016.78
2022-12-27T12:27:29.794Z,1016.82
2022-12-27T12:28:56.863Z,1016.82
2022-12-27T12:29:30.758Z,1016.84
2022-12-27T12:30:29.748Z,1016.85
2022-12-27T12:31:34.805Z,1016.82
2022-12-27T12:32:29.770Z,1016.81
2022-12-27T12:33:29.736Z,1016.82
2022-12-27T12:34:29.699Z,1016.72
2022-12-27T12:35:29.690Z,1016.72
2022-12-27T12:36:29.679Z,1016.74
2022-12-27T12:37:29.683Z,1016.69
2022-12-27T12:38:29.654Z,1016.70
2022-12-27T12:39:29.647Z,1016.77
2022-12-27T12:40:29.637Z,1016.70
2022-12-27T12:41:29.643Z,1016.73
2022-12-27T12:42:34.646Z,1016.77
2022-12-27T12:43:29.610Z,1016.74
2022-12-27T12:44:29.604Z,1016.75
2022-12-27T12:45:29.579Z,1016.76
2022-12-27T12:46:29.563Z,1016.71
2022-12-27T12:47:29.627Z,1016.69
2022-12-27T12:48:29.541Z,1016.70
2022-12-27T12:49:29.536Z,1016.68
2022-12-27T12:50:29.525Z,1016.70
2022-12-27T12:51:29.524Z,1016.63
2022-12-27T12:52:30.513Z,1016.60
2022-12-27T12:53:34.513Z,1016.64
2022-12-27T12:54:29.478Z,1016.62
2022-12-27T12:55:34.937Z,1016.53
2022-12-27T12:56:30.454Z,1016.56
2022-12-27T12:57:29.538Z,1016.54
2022-12-27T12:58:29.435Z,1016.54
2022-12-27T12:59:29.426Z,1016.57
2022-12-27T13:00:29.414Z,1016.56
2022-12-27T13:01:29.541Z,1016.54
2022-12-27T13:02:29.603Z,1016.49
2022-12-27T13:03:29.533Z,1016.58
2022-12-27T13:04:34.385Z,1016.56
2022-12-27T13:05:29.366Z,1016.58
2022-12-27T13:06:30.338Z,1016.60
2022-12-27T13:07:30.386Z,1016.56
2022-12-27T13:08:29.322Z,1016.60
2022-12-27T13:09:29.316Z,1016.54
2022-12-27T13:10:29.306Z,1016.54
2022-12-27T13:11:29.291Z,1016.55
2022-12-27T13:12:29.286Z,1016.48
2022-12-27T13:13:29.286Z,1016.41
2022-12-27T13:14:29.286Z,1016.41
2022-12-27T13:15:34.272Z,1016.44
2022-12-27T13:16:29.261Z,1016.39
2022-12-27T13:17:29.225Z,1016.37
2022-12-27T13:18:30.796Z,1016.39
2022-12-27T13:19:29.198Z,1016.39
2022-12-27T13:20:29.183Z,1016.40
2022-12-27T13:21:29.175Z,1016.39
2022-12-27T13:22:29.183Z,1016.27
2022-12-27T13:23:29.171Z,1016.37
2022-12-27T13:24:30.052Z,1016.27
2022-12-27T13:25:29.139Z,1016.32
2022-12-27T13:26:34.170Z,1016.29
2022-12-27T13:27:29.115Z,1016.26
2022-12-27T13:28:29.120Z,1016.21
2022-12-27T13:29:29.115Z,1016.30
2022-12-27T13:30:29.203Z,1016.33
2022-12-27T13:31:29.068Z,1016.31
2022-12-27T13:32:29.056Z,1016.33
2022-12-27T13:33:29.056Z,1016.30
2022-12-27T13:34:29.079Z,1016.34
2022-12-27T13:35:29.024Z,1016.37
2022-12-27T13:36:29.010Z,1016.31
2022-12-27T13:37:34.025Z,1016.32
2022-12-27T13:38:29.009Z,1016.39
2022-12-27T13:39:28.985Z,1016.36
2022-12-27T13:40:28.965Z,1016.33
2022-12-27T13:41:30.988Z,1016.37
2022-12-27T13:42:28.946Z,1016.35
2022-12-27T13:43:29.940Z,1016.37
2022-12-27T13:44:28.920Z,1016.38
2022-12-27T13:45:28.927Z,1016.38
2022-12-27T13:46:28.932Z,1016.38
2022-12-27T13:47:28.888Z,1016.41
2022-12-27T13:48:33.906Z,1016.34
2022-12-27T13:49:28.863Z,1016.28
2022-12-27T13:50:29.850Z,1016.32
2022-12-27T13:51:28.841Z,1016.27
2022-12-27T13:52:28.841Z,1016.35
2022-12-27T13:53:28.827Z,1016.33
2022-12-27T13:54:28.822Z,1016.34
2022-12-27T13:55:28.803Z,1016.31
2022-12-27T13:56:53.610Z,1016.33
2022-12-27T13:57:29.824Z,1016.39
2022-12-27T13:58:28.771Z,1016.35
2022-12-27T13:59:33.785Z,1016.33
2022-12-27T14:00:28.742Z,1016.42
2022-12-27T14:01:28.900Z,1016.36
2022-12-27T14:02:28.997Z,1016.34
2022-12-27T14:03:28.773Z,1016.36
2022-12-27T14:04:28.711Z,1016.31
2022-12-27T14:05:28.686Z,1016.36
2022-12-27T14:06:28.674Z,1016.30
2022-12-27T14:07:28.703Z,1016.21
2022-12-27T14:08:28.660Z,1016.24
2022-12-27T14:09:28.660Z,1016.30
2022-12-27T14:10:33.669Z,1016.23
2022-12-27T14:11:28.621Z,1016.22
2022-12-27T14:12:28.613Z,1016.30
2022-12-27T14:13:28.610Z,1016.32
2022-12-27T14:14:28.596Z,1016.30
2022-12-27T14:15:28.648Z,1016.27
2022-12-27T14:16:28.562Z,1016.25
2022-12-27T14:17:28.588Z,1016.34
2022-12-27T14:18:28.551Z,1016.33
2022-12-27T14:19:28.540Z,1016.28
2022-12-27T14:20:28.520Z,1016.29
2022-12-27T14:21:33.545Z,1016.28
2022-12-27T14:22:28.497Z,1016.27
2022-12-27T14:23:28.500Z,1016.18
2022-12-27T14:24:28.507Z,1016.24
2022-12-27T14:25:28.579Z,1016.23
2022-12-27T14:26:28.460Z,1016.19
2022-12-27T14:27:28.438Z,1016.20
2022-12-27T14:28:28.429Z,1016.12
2022-12-27T14:29:28.428Z,1016.16
2022-12-27T14:30:28.405Z,1016.19
2022-12-27T14:31:28.471Z,1016.16
2022-12-27T14:32:33.440Z,1016.16
2022-12-27T14:33:28.390Z,1016.19
2022-12-27T14:34:28.371Z,1016.14
2022-12-27T14:35:28.351Z,1016.13
2022-12-27T14:36:28.357Z,1016.15
2022-12-27T14:37:28.332Z,1016.23
2022-12-27T14:38:28.327Z,1016.15
2022-12-27T14:39:29.319Z,1016.27
2022-12-27T14:40:34.394Z,1016.23
2022-12-27T14:41:29.314Z,1016.21
2022-12-27T14:42:28.281Z,1016.22
2022-12-27T14:43:33.299Z,1016.31
2022-12-27T14:44:28.275Z,1016.22
2022-12-27T14:45:28.240Z,1016.30
2022-12-27T14:46:28.297Z,1016.30
2022-12-27T14:47:28.219Z,1016.31
2022-12-27T14:48:28.229Z,1016.29
2022-12-27T14:49:28.206Z,1016.29
2022-12-27T14:50:28.186Z,1016.23
2022-12-27T14:52:29.165Z,1016.22
2022-12-27T14:53:28.150Z,1016.14
2022-12-27T14:54:33.170Z,1016.27
2022-12-27T14:55:28.126Z,1016.20
2022-12-27T14:56:28.126Z,1016.23
2022-12-27T14:57:33.336Z,1016.21
2022-12-27T14:58:29.099Z,1016.18
2022-12-27T14:59:28.109Z,1016.15
2022-12-27T15:00:28.108Z,1016.15
2022-12-27T15:01:28.214Z,1016.10
2022-12-27T15:02:28.287Z,1016.08
2022-12-27T15:03:35.783Z,1016.11
2022-12-27T15:04:29.073Z,1016.08
2022-12-27T15:05:33.065Z,1016.14
2022-12-27T15:06:28.009Z,1016.16
2022-12-27T15:07:27.996Z,1016.04
2022-12-27T15:08:27.987Z,1016.13
2022-12-27T15:09:27.985Z,1016.03
2022-12-27T15:10:33.409Z,1016.11
2022-12-27T15:11:28.950Z,1016.10
2022-12-27T15:12:27.948Z,1016.08
2022-12-27T15:13:27.936Z,1016.05
2022-12-27T15:14:27.918Z,1016.06
2022-12-27T15:15:27.929Z,1016.07
2022-12-27T15:16:32.939Z,1016.01
2022-12-27T15:17:27.892Z,1015.99
2022-12-27T15:18:27.898Z,1016.01
2022-12-27T15:19:27.882Z,1015.95
2022-12-27T15:20:27.912Z,1016.03
2022-12-27T15:21:27.840Z,1015.99
2022-12-27T15:22:27.837Z,1016.01
2022-12-27T15:23:27.883Z,1016.10
2022-12-27T15:24:27.808Z,1016.05
2022-12-27T15:25:28.093Z,1016.05
2022-12-27T15:26:27.926Z,1016.08
2022-12-27T15:27:32.836Z,1016.09
2022-12-27T15:28:27.764Z,1016.03
2022-12-27T15:29:27.765Z,1016.08
2022-12-27T15:30:27.775Z,1016.01
2022-12-27T15:31:27.783Z,1016.01
2022-12-27T15:32:27.799Z,1016.01
2022-12-27T15:33:27.709Z,1015.97
2022-12-27T15:34:27.704Z,1015.97
2022-12-27T15:35:27.699Z,1015.95
2022-12-27T15:36:27.754Z,1015.96
2022-12-27T15:37:27.679Z,1015.96
2022-12-27T15:38:32.670Z,1015.92
2022-12-27T15:39:27.647Z,1015.99
2022-12-27T15:40:27.682Z,1016.02
2022-12-27T15:41:27.666Z,1016.07
2022-12-27T15:42:31.603Z,1016.07
2022-12-27T15:43:28.592Z,1016.04
2022-12-27T15:44:27.582Z,1015.98
2022-12-27T15:45:27.578Z,1016.05
2022-12-27T15:46:34.077Z,1016.06
2022-12-27T15:47:28.546Z,1016.04
2022-12-27T15:48:27.541Z,1016.15
2022-12-27T15:49:32.566Z,1016.05
2022-12-27T15:50:27.516Z,1016.08
2022-12-27T15:51:27.512Z,1016.08
2022-12-27T15:52:27.518Z,1016.05
2022-12-27T15:53:27.488Z,1016.08
2022-12-27T15:54:27.506Z,1016.06
2022-12-27T15:55:27.462Z,1016.04
2022-12-27T15:56:27.472Z,1016.12
2022-12-27T15:57:27.443Z,1016.08
2022-12-27T15:58:27.434Z,1016.10
2022-12-27T15:59:27.417Z,1016.14
2022-12-27T16:00:34.230Z,1016.09
2022-12-27T16:01:27.693Z,1016.22
2022-12-27T16:02:27.575Z,1016.13
2022-12-27T16:03:27.398Z,1016.09
2022-12-27T16:04:27.399Z,1016.11
2022-12-27T16:05:27.354Z,1016.09
2022-12-27T16:06:27.347Z,1016.05
2022-12-27T16:07:27.326Z,1016.00
2022-12-27T16:08:27.345Z,1015.95
2022-12-27T16:09:27.305Z,1015.91
2022-12-27T16:10:27.292Z,1015.88
2022-12-27T16:11:32.310Z,1015.91
2022-12-27T16:12:27.269Z,1015.92
2022-12-27T16:13:27.267Z,1015.91
2022-12-27T16:14:27.250Z,1015.87
2022-12-27T16:15:27.250Z,1015.92
2022-12-27T16:16:27.282Z,1015.90
2022-12-27T16:17:27.212Z,1015.89
2022-12-27T16:18:27.201Z,1015.85
2022-12-27T16:19:27.196Z,1015.88
2022-12-27T16:20:27.186Z,1015.90
2022-12-27T16:21:27.187Z,1015.86
2022-12-27T16:22:32.194Z,1015.85
2022-12-27T16:23:27.144Z,1015.88
2022-12-27T16:24:27.183Z,1015.83
2022-12-27T16:25:30.943Z,1015.83
2022-12-27T16:26:27.112Z,1015.84
2022-12-27T16:27:27.117Z,1015.80
2022-12-27T16:28:27.091Z,1015.93
2022-12-27T16:29:27.077Z,1015.96
2022-12-27T16:30:27.705Z,1015.87
2022-12-27T16:31:27.075Z,1015.88
2022-12-27T16:32:27.057Z,1015.92
2022-12-27T16:33:32.058Z,1015.87
2022-12-27T16:34:27.025Z,1015.89
2022-12-27T16:35:27.011Z,1015.91
2022-12-27T16:36:27.005Z,1015.92
2022-12-27T16:37:27.020Z,1015.90
2022-12-27T16:38:26.980Z,1015.90
2022-12-27T16:39:26.977Z,1015.85
2022-12-27T16:40:26.991Z,1015.87
2022-12-27T16:41:26.958Z,1015.86
2022-12-27T16:42:26.944Z,1015.84
2022-12-27T16:43:26.925Z,1015.84
2022-12-27T16:44:38.006Z,1015.74
2022-12-27T16:45:27.908Z,1015.76
2022-12-27T16:46:26.942Z,1015.73
2022-12-27T16:47:26.928Z,1015.71
2022-12-27T16:48:26.890Z,1015.68
2022-12-27T16:49:26.849Z,1015.73
2022-12-27T16:50:26.866Z,1015.68
2022-12-27T16:51:26.829Z,1015.71
2022-12-27T16:52:26.836Z,1015.75
2022-12-27T16:53:26.811Z,1015.72
2022-12-27T16:54:26.809Z,1015.71
2022-12-27T16:55:31.827Z,1015.70
2022-12-27T16:56:26.777Z,1015.65
2022-12-27T16:57:26.795Z,1015.66
2022-12-27T16:58:26.768Z,1015.64
2022-12-27T16:59:26.745Z,1015.66
2022-12-27T17:00:26.751Z,1015.66
2022-12-27T17:01:26.928Z,1015.65
2022-12-27T17:02:26.802Z,1015.61
2022-12-27T17:03:26.715Z,1015.57
2022-12-27T17:04:26.704Z,1015.64
2022-12-27T17:05:26.683Z,1015.63
2022-12-27T17:06:33.709Z,1015.62
2022-12-27T17:07:26.651Z,1015.71